sensor_id;sensor_type;location;lat;lon;timestamp;P1;durP1;ratioP1;P2;durP2;ratioP2
2201;SDS011;1107;48.654;9.250;2024-03-08T00:01:48;34.70;;;19.85;;
2201;SDS011;1107;48.654;9.250;2024-03-08T00:04:15;37.92;;;20.85;;
2201;SDS011;1107;48.654;9.250;2024-03-08T00:06:43;41.22;;;20.48;;
2201;SDS011;1107;48.654;9.250;2024-03-08T00:09:11;33.90;;;20.80;;
2201;SDS011;1107;48.654;9.250;2024-03-08T00:11:38;34.20;;;19.20;;
2201;SDS011;1107;48.654;9.250;2024-03-08T00:14:05;33.28;;;20.75;;
2201;SDS011;1107;48.654;9.250;2024-03-08T00:16:32;35.15;;;19.10;;
2201;SDS011;1107;48.654;9.250;2024-03-08T00:19:00;32.13;;;18.75;;
2201;SDS011;1107;48.654;9.250;2024-03-08T00:21:27;30.08;;;19.17;;
2201;SDS011;1107;48.654;9.250;2024-03-08T00:23:55;37.30;;;17.77;;
2201;SDS011;1107;48.654;9.250;2024-03-08T00:26:23;30.08;;;19.58;;
2201;SDS011;1107;48.654;9.250;2024-03-08T00:28:50;31.60;;;20.05;;
2201;SDS011;1107;48.654;9.250;2024-03-08T00:31:17;31.70;;;18.85;;
2201;SDS011;1107;48.654;9.250;2024-03-08T00:33:43;30.48;;;18.50;;
2201;SDS011;1107;48.654;9.250;2024-03-08T00:36:10;33.08;;;19.02;;
2201;SDS011;1107;48.654;9.250;2024-03-08T00:38:37;27.55;;;18.33;;
2201;SDS011;1107;48.654;9.250;2024-03-08T00:41:06;36.53;;;19.58;;
2201;SDS011;1107;48.654;9.250;2024-03-08T00:43:33;34.22;;;19.60;;
2201;SDS011;1107;48.654;9.250;2024-03-08T00:46:00;35.30;;;18.90;;
2201;SDS011;1107;48.654;9.250;2024-03-08T00:48:27;34.40;;;20.77;;
2201;SDS011;1107;48.654;9.250;2024-03-08T00:50:54;31.17;;;18.73;;
2201;SDS011;1107;48.654;9.250;2024-03-08T00:53:21;44.15;;;18.73;;
2201;SDS011;1107;48.654;9.250;2024-03-08T00:55:48;32.83;;;19.60;;
2201;SDS011;1107;48.654;9.250;2024-03-08T00:58:16;37.05;;;20.17;;
2201;SDS011;1107;48.654;9.250;2024-03-08T01:00:44;34.47;;;19.27;;
2201;SDS011;1107;48.654;9.250;2024-03-08T01:03:11;30.33;;;19.45;;
2201;SDS011;1107;48.654;9.250;2024-03-08T01:05:38;31.33;;;18.50;;
2201;SDS011;1107;48.654;9.250;2024-03-08T01:08:05;32.55;;;17.85;;
2201;SDS011;1107;48.654;9.250;2024-03-08T01:10:32;34.22;;;20.77;;
2201;SDS011;1107;48.654;9.250;2024-03-08T01:12:59;38.58;;;18.95;;
2201;SDS011;1107;48.654;9.250;2024-03-08T01:15:28;34.28;;;19.83;;
2201;SDS011;1107;48.654;9.250;2024-03-08T01:17:55;35.63;;;19.90;;
2201;SDS011;1107;48.654;9.250;2024-03-08T01:20:22;39.10;;;19.42;;
2201;SDS011;1107;48.654;9.250;2024-03-08T01:22:49;34.67;;;20.65;;
2201;SDS011;1107;48.654;9.250;2024-03-08T01:25:17;34.08;;;19.10;;
2201;SDS011;1107;48.654;9.250;2024-03-08T01:27:44;27.48;;;17.40;;
2201;SDS011;1107;48.654;9.250;2024-03-08T01:30:11;29.25;;;18.08;;
2201;SDS011;1107;48.654;9.250;2024-03-08T01:32:39;32.35;;;18.52;;
2201;SDS011;1107;48.654;9.250;2024-03-08T01:35:07;37.20;;;19.45;;
2201;SDS011;1107;48.654;9.250;2024-03-08T01:37:35;33.75;;;18.42;;
2201;SDS011;1107;48.654;9.250;2024-03-08T01:40:02;37.58;;;19.05;;
2201;SDS011;1107;48.654;9.250;2024-03-08T01:42:30;32.88;;;18.60;;
2201;SDS011;1107;48.654;9.250;2024-03-08T01:44:57;29.67;;;18.83;;
2201;SDS011;1107;48.654;9.250;2024-03-08T01:47:24;31.80;;;18.30;;
2201;SDS011;1107;48.654;9.250;2024-03-08T01:49:52;27.23;;;17.77;;
2201;SDS011;1107;48.654;9.250;2024-03-08T01:52:19;35.58;;;19.05;;
2201;SDS011;1107;48.654;9.250;2024-03-08T01:54:48;34.00;;;18.33;;
2201;SDS011;1107;48.654;9.250;2024-03-08T01:57:16;37.50;;;19.58;;
2201;SDS011;1107;48.654;9.250;2024-03-08T01:59:43;32.13;;;18.83;;
2201;SDS011;1107;48.654;9.250;2024-03-08T02:02:10;30.23;;;17.80;;
2201;SDS011;1107;48.654;9.250;2024-03-08T02:04:41;33.17;;;19.20;;
2201;SDS011;1107;48.654;9.250;2024-03-08T02:07:09;31.63;;;18.33;;
2201;SDS011;1107;48.654;9.250;2024-03-08T02:09:36;31.33;;;17.95;;
2201;SDS011;1107;48.654;9.250;2024-03-08T02:12:04;32.72;;;19.15;;
2201;SDS011;1107;48.654;9.250;2024-03-08T02:14:31;31.95;;;18.50;;
2201;SDS011;1107;48.654;9.250;2024-03-08T02:17:00;30.50;;;18.17;;
2201;SDS011;1107;48.654;9.250;2024-03-08T02:19:27;30.48;;;17.08;;
2201;SDS011;1107;48.654;9.250;2024-03-08T02:21:55;34.45;;;18.95;;
2201;SDS011;1107;48.654;9.250;2024-03-08T02:24:23;33.67;;;18.80;;
2201;SDS011;1107;48.654;9.250;2024-03-08T02:26:50;33.45;;;17.95;;
2201;SDS011;1107;48.654;9.250;2024-03-08T02:29:18;33.60;;;16.80;;
2201;SDS011;1107;48.654;9.250;2024-03-08T02:31:46;31.00;;;18.13;;
2201;SDS011;1107;48.654;9.250;2024-03-08T02:34:13;30.23;;;17.27;;
2201;SDS011;1107;48.654;9.250;2024-03-08T02:36:40;29.98;;;17.23;;
2201;SDS011;1107;48.654;9.250;2024-03-08T02:39:08;28.95;;;17.20;;
2201;SDS011;1107;48.654;9.250;2024-03-08T02:41:36;26.80;;;16.23;;
2201;SDS011;1107;48.654;9.250;2024-03-08T02:44:03;31.40;;;18.52;;
2201;SDS011;1107;48.654;9.250;2024-03-08T02:46:32;26.02;;;16.50;;
2201;SDS011;1107;48.654;9.250;2024-03-08T02:48:59;33.70;;;15.75;;
2201;SDS011;1107;48.654;9.250;2024-03-08T02:51:26;30.20;;;16.50;;
2201;SDS011;1107;48.654;9.250;2024-03-08T02:53:56;29.17;;;17.33;;
2201;SDS011;1107;48.654;9.250;2024-03-08T02:56:24;25.77;;;17.20;;
2201;SDS011;1107;48.654;9.250;2024-03-08T02:58:51;25.85;;;17.20;;
2201;SDS011;1107;48.654;9.250;2024-03-08T03:01:18;27.23;;;16.58;;
2201;SDS011;1107;48.654;9.250;2024-03-08T03:03:47;21.80;;;16.00;;
2201;SDS011;1107;48.654;9.250;2024-03-08T03:06:14;27.30;;;16.55;;
2201;SDS011;1107;48.654;9.250;2024-03-08T03:08:41;24.27;;;15.93;;
2201;SDS011;1107;48.654;9.250;2024-03-08T03:11:10;31.75;;;16.45;;
2201;SDS011;1107;48.654;9.250;2024-03-08T03:13:39;25.88;;;16.67;;
2201;SDS011;1107;48.654;9.250;2024-03-08T03:16:07;24.20;;;15.10;;
2201;SDS011;1107;48.654;9.250;2024-03-08T03:18:35;30.92;;;17.20;;
2201;SDS011;1107;48.654;9.250;2024-03-08T03:21:02;27.92;;;15.85;;
2201;SDS011;1107;48.654;9.250;2024-03-08T03:23:32;27.25;;;17.10;;
2201;SDS011;1107;48.654;9.250;2024-03-08T03:25:59;28.30;;;17.83;;
2201;SDS011;1107;48.654;9.250;2024-03-08T03:28:27;21.75;;;14.30;;
2201;SDS011;1107;48.654;9.250;2024-03-08T03:30:56;34.60;;;18.25;;
2201;SDS011;1107;48.654;9.250;2024-03-08T03:33:23;29.98;;;16.17;;
2201;SDS011;1107;48.654;9.250;2024-03-08T03:35:50;30.23;;;16.50;;
2201;SDS011;1107;48.654;9.250;2024-03-08T03:38:18;31.08;;;17.58;;
2201;SDS011;1107;48.654;9.250;2024-03-08T03:40:48;28.83;;;18.10;;
2201;SDS011;1107;48.654;9.250;2024-03-08T03:43:17;31.48;;;18.15;;
2201;SDS011;1107;48.654;9.250;2024-03-08T03:45:44;29.70;;;15.68;;
2201;SDS011;1107;48.654;9.250;2024-03-08T03:48:12;35.53;;;16.58;;
2201;SDS011;1107;48.654;9.250;2024-03-08T03:50:39;30.08;;;16.50;;
2201;SDS011;1107;48.654;9.250;2024-03-08T03:53:06;26.42;;;15.25;;
2201;SDS011;1107;48.654;9.250;2024-03-08T03:55:34;30.65;;;17.33;;
2201;SDS011;1107;48.654;9.250;2024-03-08T03:58:02;28.83;;;17.58;;
2201;SDS011;1107;48.654;9.250;2024-03-08T04:00:29;29.38;;;15.85;;
2201;SDS011;1107;48.654;9.250;2024-03-08T04:02:56;28.15;;;17.70;;
2201;SDS011;1107;48.654;9.250;2024-03-08T04:05:26;29.17;;;16.98;;
2201;SDS011;1107;48.654;9.250;2024-03-08T04:07:53;28.00;;;18.83;;
2201;SDS011;1107;48.654;9.250;2024-03-08T04:10:20;27.27;;;16.40;;
2201;SDS011;1107;48.654;9.250;2024-03-08T04:12:47;33.35;;;17.25;;
2201;SDS011;1107;48.654;9.250;2024-03-08T04:15:14;30.13;;;17.83;;
2201;SDS011;1107;48.654;9.250;2024-03-08T04:17:41;26.92;;;15.30;;
2201;SDS011;1107;48.654;9.250;2024-03-08T04:20:11;29.17;;;17.55;;
2201;SDS011;1107;48.654;9.250;2024-03-08T04:22:41;28.27;;;17.08;;
2201;SDS011;1107;48.654;9.250;2024-03-08T04:25:08;27.27;;;18.55;;
2201;SDS011;1107;48.654;9.250;2024-03-08T04:27:35;29.55;;;17.30;;
2201;SDS011;1107;48.654;9.250;2024-03-08T04:30:02;27.90;;;17.48;;
2201;SDS011;1107;48.654;9.250;2024-03-08T04:32:32;30.23;;;17.35;;
2201;SDS011;1107;48.654;9.250;2024-03-08T04:34:59;26.38;;;17.02;;
2201;SDS011;1107;48.654;9.250;2024-03-08T04:37:28;31.10;;;18.15;;
2201;SDS011;1107;48.654;9.250;2024-03-08T04:39:57;30.33;;;17.98;;
2201;SDS011;1107;48.654;9.250;2024-03-08T04:42:24;30.85;;;17.77;;
2201;SDS011;1107;48.654;9.250;2024-03-08T04:44:51;31.02;;;18.38;;
2201;SDS011;1107;48.654;9.250;2024-03-08T04:47:18;29.00;;;18.15;;
2201;SDS011;1107;48.654;9.250;2024-03-08T04:49:45;35.05;;;19.20;;
2201;SDS011;1107;48.654;9.250;2024-03-08T04:52:12;28.63;;;17.45;;
2201;SDS011;1107;48.654;9.250;2024-03-08T04:54:39;27.75;;;17.55;;
2201;SDS011;1107;48.654;9.250;2024-03-08T04:57:08;44.10;;;18.75;;
2201;SDS011;1107;48.654;9.250;2024-03-08T04:59:36;30.42;;;19.00;;
2201;SDS011;1107;48.654;9.250;2024-03-08T05:02:03;36.58;;;17.75;;
2201;SDS011;1107;48.654;9.250;2024-03-08T05:04:30;30.30;;;18.00;;
2201;SDS011;1107;48.654;9.250;2024-03-08T05:06:57;29.95;;;17.65;;
2201;SDS011;1107;48.654;9.250;2024-03-08T05:09:26;23.55;;;16.50;;
2201;SDS011;1107;48.654;9.250;2024-03-08T05:11:54;33.67;;;18.55;;
2201;SDS011;1107;48.654;9.250;2024-03-08T05:14:23;33.40;;;19.08;;
2201;SDS011;1107;48.654;9.250;2024-03-08T05:16:50;31.23;;;18.60;;
2201;SDS011;1107;48.654;9.250;2024-03-08T05:19:17;34.28;;;18.13;;
2201;SDS011;1107;48.654;9.250;2024-03-08T05:21:44;32.42;;;17.20;;
2201;SDS011;1107;48.654;9.250;2024-03-08T05:24:12;28.52;;;17.40;;
2201;SDS011;1107;48.654;9.250;2024-03-08T05:26:39;30.30;;;18.02;;
2201;SDS011;1107;48.654;9.250;2024-03-08T05:29:06;36.38;;;17.70;;
2201;SDS011;1107;48.654;9.250;2024-03-08T05:31:35;29.40;;;16.98;;
2201;SDS011;1107;48.654;9.250;2024-03-08T05:34:09;31.90;;;17.15;;
2201;SDS011;1107;48.654;9.250;2024-03-08T05:36:36;35.88;;;19.02;;
2201;SDS011;1107;48.654;9.250;2024-03-08T05:39:03;29.58;;;17.55;;
2201;SDS011;1107;48.654;9.250;2024-03-08T05:41:31;26.08;;;17.70;;
2201;SDS011;1107;48.654;9.250;2024-03-08T05:43:58;31.48;;;18.23;;
2201;SDS011;1107;48.654;9.250;2024-03-08T05:46:25;40.55;;;20.08;;
2201;SDS011;1107;48.654;9.250;2024-03-08T05:48:53;32.10;;;20.13;;
2201;SDS011;1107;48.654;9.250;2024-03-08T05:51:20;31.00;;;18.60;;
2201;SDS011;1107;48.654;9.250;2024-03-08T05:53:51;35.63;;;19.23;;
2201;SDS011;1107;48.654;9.250;2024-03-08T05:56:18;34.70;;;18.83;;
2201;SDS011;1107;48.654;9.250;2024-03-08T05:58:45;35.42;;;19.20;;
2201;SDS011;1107;48.654;9.250;2024-03-08T06:01:13;36.65;;;20.33;;
2201;SDS011;1107;48.654;9.250;2024-03-08T06:03:41;39.20;;;18.83;;
2201;SDS011;1107;48.654;9.250;2024-03-08T06:06:11;40.92;;;19.38;;
2201;SDS011;1107;48.654;9.250;2024-03-08T06:08:38;39.13;;;19.85;;
2201;SDS011;1107;48.654;9.250;2024-03-08T06:11:08;33.15;;;20.10;;
2201;SDS011;1107;48.654;9.250;2024-03-08T06:13:35;38.28;;;20.17;;
2201;SDS011;1107;48.654;9.250;2024-03-08T06:16:02;32.53;;;18.65;;
2201;SDS011;1107;48.654;9.250;2024-03-08T06:18:29;35.55;;;19.90;;
2201;SDS011;1107;48.654;9.250;2024-03-08T06:20:56;32.08;;;19.27;;
2201;SDS011;1107;48.654;9.250;2024-03-08T06:23:24;35.25;;;19.60;;
2201;SDS011;1107;48.654;9.250;2024-03-08T06:25:52;31.83;;;19.77;;
2201;SDS011;1107;48.654;9.250;2024-03-08T06:28:19;36.10;;;19.02;;
2201;SDS011;1107;48.654;9.250;2024-03-08T06:30:46;31.02;;;18.90;;
2201;SDS011;1107;48.654;9.250;2024-03-08T06:33:13;31.20;;;19.02;;
2201;SDS011;1107;48.654;9.250;2024-03-08T06:35:41;33.33;;;19.58;;
2201;SDS011;1107;48.654;9.250;2024-03-08T06:38:08;37.08;;;20.65;;
2201;SDS011;1107;48.654;9.250;2024-03-08T06:40:38;32.80;;;19.05;;
2201;SDS011;1107;48.654;9.250;2024-03-08T06:43:05;32.47;;;18.88;;
2201;SDS011;1107;48.654;9.250;2024-03-08T06:45:32;33.58;;;18.60;;
2201;SDS011;1107;48.654;9.250;2024-03-08T06:48:02;36.58;;;19.00;;
2201;SDS011;1107;48.654;9.250;2024-03-08T06:50:34;30.58;;;18.23;;
2201;SDS011;1107;48.654;9.250;2024-03-08T06:53:02;35.13;;;19.67;;
2201;SDS011;1107;48.654;9.250;2024-03-08T06:55:29;31.77;;;20.45;;
2201;SDS011;1107;48.654;9.250;2024-03-08T06:57:57;32.17;;;18.20;;
2201;SDS011;1107;48.654;9.250;2024-03-08T07:00:24;35.15;;;20.35;;
2201;SDS011;1107;48.654;9.250;2024-03-08T07:02:53;28.40;;;17.95;;
2201;SDS011;1107;48.654;9.250;2024-03-08T07:05:20;31.85;;;19.52;;
2201;SDS011;1107;48.654;9.250;2024-03-08T07:07:48;33.95;;;19.70;;
2201;SDS011;1107;48.654;9.250;2024-03-08T07:10:16;30.67;;;18.58;;
2201;SDS011;1107;48.654;9.250;2024-03-08T07:12:44;37.80;;;20.02;;
2201;SDS011;1107;48.654;9.250;2024-03-08T07:15:13;29.30;;;19.10;;
2201;SDS011;1107;48.654;9.250;2024-03-08T07:17:40;33.75;;;20.40;;
2201;SDS011;1107;48.654;9.250;2024-03-08T07:20:10;31.75;;;18.70;;
2201;SDS011;1107;48.654;9.250;2024-03-08T07:22:38;33.58;;;20.08;;
2201;SDS011;1107;48.654;9.250;2024-03-08T07:25:06;36.97;;;19.30;;
2201;SDS011;1107;48.654;9.250;2024-03-08T07:27:45;34.08;;;18.25;;
2201;SDS011;1107;48.654;9.250;2024-03-08T07:30:14;32.78;;;19.25;;
2201;SDS011;1107;48.654;9.250;2024-03-08T07:33:03;29.42;;;18.42;;
2201;SDS011;1107;48.654;9.250;2024-03-08T07:35:32;27.13;;;17.35;;
2201;SDS011;1107;48.654;9.250;2024-03-08T07:38:01;32.03;;;19.60;;
2201;SDS011;1107;48.654;9.250;2024-03-08T07:40:30;31.40;;;18.45;;
2201;SDS011;1107;48.654;9.250;2024-03-08T07:42:57;33.28;;;19.23;;
2201;SDS011;1107;48.654;9.250;2024-03-08T07:45:26;32.80;;;19.05;;
2201;SDS011;1107;48.654;9.250;2024-03-08T07:47:53;30.42;;;18.70;;
2201;SDS011;1107;48.654;9.250;2024-03-08T07:50:21;26.55;;;17.83;;
2201;SDS011;1107;48.654;9.250;2024-03-08T07:52:48;29.23;;;18.52;;
2201;SDS011;1107;48.654;9.250;2024-03-08T07:55:15;32.60;;;19.50;;
2201;SDS011;1107;48.654;9.250;2024-03-08T07:57:42;30.92;;;19.45;;
2201;SDS011;1107;48.654;9.250;2024-03-08T08:00:09;35.40;;;19.55;;
2201;SDS011;1107;48.654;9.250;2024-03-08T08:02:44;27.52;;;18.05;;
2201;SDS011;1107;48.654;9.250;2024-03-08T08:05:11;28.75;;;18.45;;
2201;SDS011;1107;48.654;9.250;2024-03-08T08:07:38;28.67;;;19.25;;
2201;SDS011;1107;48.654;9.250;2024-03-08T08:10:08;24.65;;;18.33;;
2201;SDS011;1107;48.654;9.250;2024-03-08T08:12:41;31.00;;;19.97;;
2201;SDS011;1107;48.654;9.250;2024-03-08T08:15:08;26.52;;;17.95;;
2201;SDS011;1107;48.654;9.250;2024-03-08T08:17:36;31.27;;;18.00;;
2201;SDS011;1107;48.654;9.250;2024-03-08T08:20:05;29.30;;;17.75;;
2201;SDS011;1107;48.654;9.250;2024-03-08T08:22:33;36.80;;;19.77;;
2201;SDS011;1107;48.654;9.250;2024-03-08T08:25:00;28.35;;;17.85;;
2201;SDS011;1107;48.654;9.250;2024-03-08T08:27:28;33.42;;;18.55;;
2201;SDS011;1107;48.654;9.250;2024-03-08T08:29:55;27.50;;;17.45;;
2201;SDS011;1107;48.654;9.250;2024-03-08T08:32:22;27.27;;;17.42;;
2201;SDS011;1107;48.654;9.250;2024-03-08T08:34:49;30.65;;;16.95;;
2201;SDS011;1107;48.654;9.250;2024-03-08T08:37:17;26.15;;;17.75;;
2201;SDS011;1107;48.654;9.250;2024-03-08T08:39:44;29.00;;;18.67;;
2201;SDS011;1107;48.654;9.250;2024-03-08T08:42:11;24.92;;;16.88;;
2201;SDS011;1107;48.654;9.250;2024-03-08T08:44:38;29.33;;;18.40;;
2201;SDS011;1107;48.654;9.250;2024-03-08T08:47:05;24.83;;;17.58;;
2201;SDS011;1107;48.654;9.250;2024-03-08T08:49:32;23.10;;;16.23;;
2201;SDS011;1107;48.654;9.250;2024-03-08T08:52:00;26.55;;;16.85;;
2201;SDS011;1107;48.654;9.250;2024-03-08T08:54:29;29.20;;;18.67;;
2201;SDS011;1107;48.654;9.250;2024-03-08T08:56:56;26.27;;;17.92;;
2201;SDS011;1107;48.654;9.250;2024-03-08T08:59:23;26.13;;;17.45;;
2201;SDS011;1107;48.654;9.250;2024-03-08T09:01:50;28.15;;;17.55;;
2201;SDS011;1107;48.654;9.250;2024-03-08T09:04:19;26.70;;;18.55;;
2201;SDS011;1107;48.654;9.250;2024-03-08T09:06:48;26.98;;;17.90;;
2201;SDS011;1107;48.654;9.250;2024-03-08T09:09:15;24.90;;;17.17;;
2201;SDS011;1107;48.654;9.250;2024-03-08T09:11:43;23.30;;;17.17;;
2201;SDS011;1107;48.654;9.250;2024-03-08T09:14:11;23.73;;;17.55;;
2201;SDS011;1107;48.654;9.250;2024-03-08T09:16:39;21.90;;;16.70;;
2201;SDS011;1107;48.654;9.250;2024-03-08T09:19:06;26.02;;;17.17;;
2201;SDS011;1107;48.654;9.250;2024-03-08T09:21:35;27.27;;;17.85;;
2201;SDS011;1107;48.654;9.250;2024-03-08T09:24:03;25.85;;;17.20;;
2201;SDS011;1107;48.654;9.250;2024-03-08T09:26:31;25.02;;;17.58;;
2201;SDS011;1107;48.654;9.250;2024-03-08T09:28:59;27.17;;;16.08;;
2201;SDS011;1107;48.654;9.250;2024-03-08T09:31:26;29.67;;;17.10;;
2201;SDS011;1107;48.654;9.250;2024-03-08T09:33:53;26.42;;;18.60;;
2201;SDS011;1107;48.654;9.250;2024-03-08T09:36:20;22.60;;;16.30;;
2201;SDS011;1107;48.654;9.250;2024-03-08T09:38:47;28.75;;;18.25;;
2201;SDS011;1107;48.654;9.250;2024-03-08T09:41:15;25.83;;;16.65;;
2201;SDS011;1107;48.654;9.250;2024-03-08T09:43:42;21.70;;;15.32;;
2201;SDS011;1107;48.654;9.250;2024-03-08T09:46:12;22.48;;;16.70;;
2201;SDS011;1107;48.654;9.250;2024-03-08T09:48:40;21.05;;;16.85;;
2201;SDS011;1107;48.654;9.250;2024-03-08T09:51:08;24.25;;;16.60;;
2201;SDS011;1107;48.654;9.250;2024-03-08T09:53:38;18.60;;;14.85;;
2201;SDS011;1107;48.654;9.250;2024-03-08T09:56:07;25.40;;;15.52;;
2201;SDS011;1107;48.654;9.250;2024-03-08T09:58:34;25.77;;;16.85;;
2201;SDS011;1107;48.654;9.250;2024-03-08T10:01:20;24.48;;;16.95;;
2201;SDS011;1107;48.654;9.250;2024-03-08T10:03:47;21.88;;;15.68;;
2201;SDS011;1107;48.654;9.250;2024-03-08T10:06:15;20.35;;;16.45;;
2201;SDS011;1107;48.654;9.250;2024-03-08T10:08:42;23.85;;;16.23;;
2201;SDS011;1107;48.654;9.250;2024-03-08T10:11:10;18.42;;;14.68;;
2201;SDS011;1107;48.654;9.250;2024-03-08T10:13:37;19.77;;;15.43;;
2201;SDS011;1107;48.654;9.250;2024-03-08T10:16:05;18.45;;;15.57;;
2201;SDS011;1107;48.654;9.250;2024-03-08T10:18:35;23.92;;;16.77;;
2201;SDS011;1107;48.654;9.250;2024-03-08T10:21:02;20.85;;;15.32;;
2201;SDS011;1107;48.654;9.250;2024-03-08T10:23:30;24.20;;;16.55;;
2201;SDS011;1107;48.654;9.250;2024-03-08T10:26:04;22.58;;;16.10;;
2201;SDS011;1107;48.654;9.250;2024-03-08T10:28:36;22.38;;;17.15;;
2201;SDS011;1107;48.654;9.250;2024-03-08T10:31:03;22.07;;;16.20;;
2201;SDS011;1107;48.654;9.250;2024-03-08T10:33:31;19.17;;;15.48;;
2201;SDS011;1107;48.654;9.250;2024-03-08T10:35:59;21.98;;;16.00;;
2201;SDS011;1107;48.654;9.250;2024-03-08T10:38:28;21.07;;;16.97;;
2201;SDS011;1107;48.654;9.250;2024-03-08T10:40:59;20.60;;;16.63;;
2201;SDS011;1107;48.654;9.250;2024-03-08T10:43:28;18.75;;;16.05;;
2201;SDS011;1107;48.654;9.250;2024-03-08T10:46:05;18.13;;;15.40;;
2201;SDS011;1107;48.654;9.250;2024-03-08T10:48:43;20.45;;;15.25;;
2201;SDS011;1107;48.654;9.250;2024-03-08T10:51:12;24.23;;;15.57;;
2201;SDS011;1107;48.654;9.250;2024-03-08T10:53:41;19.00;;;14.60;;
2201;SDS011;1107;48.654;9.250;2024-03-08T10:56:10;18.60;;;15.13;;
2201;SDS011;1107;48.654;9.250;2024-03-08T10:58:39;18.80;;;15.63;;
2201;SDS011;1107;48.654;9.250;2024-03-08T11:01:09;19.00;;;15.60;;
2201;SDS011;1107;48.654;9.250;2024-03-08T11:03:46;17.23;;;15.17;;
2201;SDS011;1107;48.654;9.250;2024-03-08T11:06:21;16.80;;;14.97;;
2201;SDS011;1107;48.654;9.250;2024-03-08T11:08:55;16.73;;;15.03;;
2201;SDS011;1107;48.654;9.250;2024-03-08T11:11:24;16.97;;;15.23;;
2201;SDS011;1107;48.654;9.250;2024-03-08T11:13:56;18.70;;;16.30;;
2201;SDS011;1107;48.654;9.250;2024-03-08T11:16:39;18.20;;;15.47;;
2201;SDS011;1107;48.654;9.250;2024-03-08T11:19:23;17.33;;;15.53;;
2201;SDS011;1107;48.654;9.250;2024-03-08T11:21:58;18.53;;;14.53;;
2201;SDS011;1107;48.654;9.250;2024-03-08T11:24:26;17.77;;;15.23;;
2201;SDS011;1107;48.654;9.250;2024-03-08T11:26:56;17.57;;;15.53;;
2201;SDS011;1107;48.654;9.250;2024-03-08T11:29:32;17.30;;;15.50;;
2201;SDS011;1107;48.654;9.250;2024-03-08T11:32:03;19.70;;;16.80;;
2201;SDS011;1107;48.654;9.250;2024-03-08T11:34:31;18.37;;;16.13;;
2201;SDS011;1107;48.654;9.250;2024-03-08T11:37:00;17.13;;;15.40;;
2201;SDS011;1107;48.654;9.250;2024-03-08T11:39:30;17.97;;;15.40;;
2201;SDS011;1107;48.654;9.250;2024-03-08T11:41:57;17.37;;;15.13;;
2201;SDS011;1107;48.654;9.250;2024-03-08T11:44:26;18.13;;;16.33;;
2201;SDS011;1107;48.654;9.250;2024-03-08T11:46:54;16.80;;;15.10;;
2201;SDS011;1107;48.654;9.250;2024-03-08T11:49:21;17.83;;;15.97;;
2201;SDS011;1107;48.654;9.250;2024-03-08T11:51:50;18.37;;;16.43;;
2201;SDS011;1107;48.654;9.250;2024-03-08T11:54:20;17.47;;;15.70;;
2201;SDS011;1107;48.654;9.250;2024-03-08T11:56:47;18.70;;;16.80;;
2201;SDS011;1107;48.654;9.250;2024-03-08T11:59:14;17.80;;;15.90;;
2201;SDS011;1107;48.654;9.250;2024-03-08T12:01:42;16.77;;;15.47;;
2201;SDS011;1107;48.654;9.250;2024-03-08T12:04:11;18.10;;;16.33;;
2201;SDS011;1107;48.654;9.250;2024-03-08T12:06:39;17.37;;;16.00;;
2201;SDS011;1107;48.654;9.250;2024-03-08T12:09:10;18.13;;;16.63;;
2201;SDS011;1107;48.654;9.250;2024-03-08T12:11:39;20.20;;;17.17;;
2201;SDS011;1107;48.654;9.250;2024-03-08T12:14:08;17.77;;;16.07;;
2201;SDS011;1107;48.654;9.250;2024-03-08T12:16:36;21.37;;;17.47;;
2201;SDS011;1107;48.654;9.250;2024-03-08T12:19:03;18.33;;;16.53;;
2201;SDS011;1107;48.654;9.250;2024-03-08T12:21:31;18.27;;;16.60;;
2201;SDS011;1107;48.654;9.250;2024-03-08T12:24:03;18.13;;;16.63;;
2201;SDS011;1107;48.654;9.250;2024-03-08T12:26:34;19.13;;;17.53;;
2201;SDS011;1107;48.654;9.250;2024-03-08T12:29:16;18.93;;;17.23;;
2201;SDS011;1107;48.654;9.250;2024-03-08T12:31:45;19.83;;;17.40;;
2201;SDS011;1107;48.654;9.250;2024-03-08T12:34:13;19.17;;;17.60;;
2201;SDS011;1107;48.654;9.250;2024-03-08T12:36:44;19.30;;;17.60;;
2201;SDS011;1107;48.654;9.250;2024-03-08T12:39:13;18.93;;;17.30;;
2201;SDS011;1107;48.654;9.250;2024-03-08T12:41:43;19.70;;;17.50;;
2201;SDS011;1107;48.654;9.250;2024-03-08T12:44:11;18.23;;;16.53;;
2201;SDS011;1107;48.654;9.250;2024-03-08T12:46:40;17.67;;;16.17;;
2201;SDS011;1107;48.654;9.250;2024-03-08T12:49:09;18.03;;;16.40;;
2201;SDS011;1107;48.654;9.250;2024-03-08T12:51:37;18.60;;;16.30;;
2201;SDS011;1107;48.654;9.250;2024-03-08T12:54:05;17.90;;;16.30;;
2201;SDS011;1107;48.654;9.250;2024-03-08T12:56:33;19.20;;;17.30;;
2201;SDS011;1107;48.654;9.250;2024-03-08T12:59:02;18.30;;;16.77;;
2201;SDS011;1107;48.654;9.250;2024-03-08T13:01:30;18.47;;;16.87;;
2201;SDS011;1107;48.654;9.250;2024-03-08T13:03:59;19.23;;;17.50;;
2201;SDS011;1107;48.654;9.250;2024-03-08T13:06:28;19.30;;;17.50;;
2201;SDS011;1107;48.654;9.250;2024-03-08T13:08:56;19.00;;;17.30;;
2201;SDS011;1107;48.654;9.250;2024-03-08T13:11:23;18.27;;;16.57;;
2201;SDS011;1107;48.654;9.250;2024-03-08T13:13:50;18.73;;;16.87;;
2201;SDS011;1107;48.654;9.250;2024-03-08T13:16:18;20.13;;;17.93;;
2201;SDS011;1107;48.654;9.250;2024-03-08T13:18:46;19.27;;;17.47;;
2201;SDS011;1107;48.654;9.250;2024-03-08T13:21:15;20.77;;;18.77;;
2201;SDS011;1107;48.654;9.250;2024-03-08T13:23:45;21.23;;;19.03;;
2201;SDS011;1107;48.654;9.250;2024-03-08T13:26:14;19.37;;;17.27;;
2201;SDS011;1107;48.654;9.250;2024-03-08T13:28:42;19.80;;;18.00;;
2201;SDS011;1107;48.654;9.250;2024-03-08T13:31:09;20.17;;;18.23;;
2201;SDS011;1107;48.654;9.250;2024-03-08T13:33:36;18.37;;;16.60;;
2201;SDS011;1107;48.654;9.250;2024-03-08T13:36:05;20.47;;;18.50;;
2201;SDS011;1107;48.654;9.250;2024-03-08T13:38:41;23.53;;;19.40;;
2201;SDS011;1107;48.654;9.250;2024-03-08T13:41:09;20.53;;;18.47;;
2201;SDS011;1107;48.654;9.250;2024-03-08T13:43:39;20.00;;;18.00;;
2201;SDS011;1107;48.654;9.250;2024-03-08T13:46:06;20.40;;;18.20;;
2201;SDS011;1107;48.654;9.250;2024-03-08T13:48:35;20.23;;;18.30;;
2201;SDS011;1107;48.654;9.250;2024-03-08T13:51:02;20.30;;;18.30;;
2201;SDS011;1107;48.654;9.250;2024-03-08T13:53:31;17.57;;;16.07;;
2201;SDS011;1107;48.654;9.250;2024-03-08T13:55:59;21.33;;;19.07;;
2201;SDS011;1107;48.654;9.250;2024-03-08T13:58:27;19.87;;;17.27;;
2201;SDS011;1107;48.654;9.250;2024-03-08T14:00:54;20.20;;;17.17;;
2201;SDS011;1107;48.654;9.250;2024-03-08T14:03:20;19.27;;;17.30;;
2201;SDS011;1107;48.654;9.250;2024-03-08T14:05:48;22.17;;;17.60;;
2201;SDS011;1107;48.654;9.250;2024-03-08T14:08:15;19.27;;;17.33;;
2201;SDS011;1107;48.654;9.250;2024-03-08T14:10:42;23.70;;;17.67;;
2201;SDS011;1107;48.654;9.250;2024-03-08T14:13:13;18.63;;;16.57;;
2201;SDS011;1107;48.654;9.250;2024-03-08T14:15:41;20.33;;;17.63;;
2201;SDS011;1107;48.654;9.250;2024-03-08T14:18:10;24.00;;;18.53;;
2201;SDS011;1107;48.654;9.250;2024-03-08T14:20:38;20.17;;;18.07;;
2201;SDS011;1107;48.654;9.250;2024-03-08T14:23:05;19.20;;;17.03;;
2201;SDS011;1107;48.654;9.250;2024-03-08T14:25:33;18.90;;;16.97;;
2201;SDS011;1107;48.654;9.250;2024-03-08T14:28:00;19.00;;;17.00;;
2201;SDS011;1107;48.654;9.250;2024-03-08T14:30:33;18.50;;;16.50;;
2201;SDS011;1107;48.654;9.250;2024-03-08T14:33:03;18.40;;;16.50;;
2201;SDS011;1107;48.654;9.250;2024-03-08T14:35:33;22.27;;;18.00;;
2201;SDS011;1107;48.654;9.250;2024-03-08T14:38:00;19.43;;;17.33;;
2201;SDS011;1107;48.654;9.250;2024-03-08T14:40:27;22.83;;;18.23;;
2201;SDS011;1107;48.654;9.250;2024-03-08T14:42:55;21.90;;;18.37;;
2201;SDS011;1107;48.654;9.250;2024-03-08T14:45:22;23.47;;;17.63;;
2201;SDS011;1107;48.654;9.250;2024-03-08T14:47:53;24.67;;;18.93;;
2201;SDS011;1107;48.654;9.250;2024-03-08T14:50:20;23.13;;;19.20;;
2201;SDS011;1107;48.654;9.250;2024-03-08T14:52:49;19.60;;;17.63;;
2201;SDS011;1107;48.654;9.250;2024-03-08T14:55:16;24.40;;;16.90;;